sensor_id;sensor_type;location;lat;lon;timestamp;P1;durP1;ratioP1;P2;durP2;ratioP2
12320;SDS011;6225;52.720;8.276;2022-07-29T00:00:01;2.80;;;0.87;;
12320;SDS011;6225;52.720;8.276;2022-07-29T00:02:48;2.53;;;0.90;;
12320;SDS011;6225;52.720;8.276;2022-07-29T00:05:32;1.53;;;1.10;;
12320;SDS011;6225;52.720;8.276;2022-07-29T00:08:16;2.30;;;1.10;;
12320;SDS011;6225;52.720;8.276;2022-07-29T00:11:00;4.60;;;0.93;;
12320;SDS011;6225;52.720;8.276;2022-07-29T00:13:45;3.70;;;1.20;;
12320;SDS011;6225;52.720;8.276;2022-07-29T00:16:29;1.40;;;1.00;;
12320;SDS011;6225;52.720;8.276;2022-07-29T00:19:13;2.50;;;1.27;;
12320;SDS011;6225;52.720;8.276;2022-07-29T00:21:57;4.63;;;1.67;;
12320;SDS011;6225;52.720;8.276;2022-07-29T00:24:41;4.85;;;1.20;;
12320;SDS011;6225;52.720;8.276;2022-07-29T00:27:25;2.80;;;1.20;;
12320;SDS011;6225;52.720;8.276;2022-07-29T00:30:09;2.40;;;1.10;;
12320;SDS011;6225;52.720;8.276;2022-07-29T00:32:54;4.20;;;1.27;;
12320;SDS011;6225;52.720;8.276;2022-07-29T00:35:38;5.63;;;1.20;;
12320;SDS011;6225;52.720;8.276;2022-07-29T00:38:28;1.70;;;1.23;;
12320;SDS011;6225;52.720;8.276;2022-07-29T00:41:12;2.17;;;1.00;;
12320;SDS011;6225;52.720;8.276;2022-07-29T00:43:57;1.57;;;1.17;;
12320;SDS011;6225;52.720;8.276;2022-07-29T00:46:41;2.20;;;1.10;;
12320;SDS011;6225;52.720;8.276;2022-07-29T00:49:25;2.60;;;0.90;;
12320;SDS011;6225;52.720;8.276;2022-07-29T00:52:09;2.37;;;1.17;;
12320;SDS011;6225;52.720;8.276;2022-07-29T00:54:54;5.20;;;1.07;;
12320;SDS011;6225;52.720;8.276;2022-07-29T00:57:38;1.63;;;1.00;;
12320;SDS011;6225;52.720;8.276;2022-07-29T01:00:25;4.30;;;1.37;;
12320;SDS011;6225;52.720;8.276;2022-07-29T01:03:10;5.57;;;0.80;;
12320;SDS011;6225;52.720;8.276;2022-07-29T01:05:54;5.20;;;1.70;;
12320;SDS011;6225;52.720;8.276;2022-07-29T01:08:39;5.03;;;1.10;;
12320;SDS011;6225;52.720;8.276;2022-07-29T01:11:24;3.20;;;1.13;;
12320;SDS011;6225;52.720;8.276;2022-07-29T01:14:09;1.63;;;1.10;;
12320;SDS011;6225;52.720;8.276;2022-07-29T01:17:01;3.90;;;1.00;;
12320;SDS011;6225;52.720;8.276;2022-07-29T01:20:14;3.13;;;1.20;;
12320;SDS011;6225;52.720;8.276;2022-07-29T01:29:30;4.97;;;1.20;;
12320;SDS011;6225;52.720;8.276;2022-07-29T01:32:19;5.27;;;1.33;;
12320;SDS011;6225;52.720;8.276;2022-07-29T01:35:13;2.50;;;1.20;;
12320;SDS011;6225;52.720;8.276;2022-07-29T01:38:20;2.90;;;1.30;;
12320;SDS011;6225;52.720;8.276;2022-07-29T01:41:08;3.90;;;1.30;;
12320;SDS011;6225;52.720;8.276;2022-07-29T01:43:57;3.13;;;1.33;;
12320;SDS011;6225;52.720;8.276;2022-07-29T01:46:56;3.03;;;1.10;;
12320;SDS011;6225;52.720;8.276;2022-07-29T01:49:46;1.47;;;0.87;;
12320;SDS011;6225;52.720;8.276;2022-07-29T01:52:43;2.87;;;1.10;;
12320;SDS011;6225;52.720;8.276;2022-07-29T01:55:34;2.50;;;1.10;;
12320;SDS011;6225;52.720;8.276;2022-07-29T01:58:22;2.10;;;1.20;;
12320;SDS011;6225;52.720;8.276;2022-07-29T02:01:08;4.43;;;1.20;;
12320;SDS011;6225;52.720;8.276;2022-07-29T02:03:54;1.90;;;0.97;;
12320;SDS011;6225;52.720;8.276;2022-07-29T02:06:42;2.63;;;1.00;;
12320;SDS011;6225;52.720;8.276;2022-07-29T02:09:27;3.20;;;0.90;;
12320;SDS011;6225;52.720;8.276;2022-07-29T02:12:14;2.00;;;0.97;;
12320;SDS011;6225;52.720;8.276;2022-07-29T02:15:02;1.93;;;1.10;;
12320;SDS011;6225;52.720;8.276;2022-07-29T02:17:55;2.20;;;1.07;;
12320;SDS011;6225;52.720;8.276;2022-07-29T02:20:44;6.03;;;1.30;;
12320;SDS011;6225;52.720;8.276;2022-07-29T02:23:32;5.30;;;1.23;;
12320;SDS011;6225;52.720;8.276;2022-07-29T02:26:22;6.17;;;1.27;;
12320;SDS011;6225;52.720;8.276;2022-07-29T02:29:07;3.27;;;1.10;;
12320;SDS011;6225;52.720;8.276;2022-07-29T02:31:53;2.27;;;1.30;;
12320;SDS011;6225;52.720;8.276;2022-07-29T02:34:40;4.80;;;1.20;;
12320;SDS011;6225;52.720;8.276;2022-07-29T02:37:26;1.80;;;0.97;;
12320;SDS011;6225;52.720;8.276;2022-07-29T02:40:13;2.07;;;1.20;;
12320;SDS011;6225;52.720;8.276;2022-07-29T02:43:00;4.97;;;0.90;;
12320;SDS011;6225;52.720;8.276;2022-07-29T02:45:46;5.00;;;1.37;;
12320;SDS011;6225;52.720;8.276;2022-07-29T02:48:36;2.60;;;1.10;;
12320;SDS011;6225;52.720;8.276;2022-07-29T02:51:25;2.87;;;1.10;;
12320;SDS011;6225;52.720;8.276;2022-07-29T02:54:24;3.83;;;1.03;;
12320;SDS011;6225;52.720;8.276;2022-07-29T02:57:20;6.83;;;1.30;;
12320;SDS011;6225;52.720;8.276;2022-07-29T03:00:10;2.00;;;1.17;;
12320;SDS011;6225;52.720;8.276;2022-07-29T03:02:57;3.93;;;1.20;;
12320;SDS011;6225;52.720;8.276;2022-07-29T03:05:42;4.77;;;1.30;;
12320;SDS011;6225;52.720;8.276;2022-07-29T03:08:27;2.37;;;1.20;;
12320;SDS011;6225;52.720;8.276;2022-07-29T03:11:12;3.07;;;1.23;;
12320;SDS011;6225;52.720;8.276;2022-07-29T03:13:57;2.97;;;1.10;;
12320;SDS011;6225;52.720;8.276;2022-07-29T03:16:42;4.00;;;1.33;;
12320;SDS011;6225;52.720;8.276;2022-07-29T03:19:26;3.07;;;1.00;;
12320;SDS011;6225;52.720;8.276;2022-07-29T03:22:11;2.50;;;1.20;;
12320;SDS011;6225;52.720;8.276;2022-07-29T03:24:55;1.10;;;1.00;;
12320;SDS011;6225;52.720;8.276;2022-07-29T03:27:40;3.37;;;1.07;;
12320;SDS011;6225;52.720;8.276;2022-07-29T03:30:24;3.83;;;1.30;;
12320;SDS011;6225;52.720;8.276;2022-07-29T03:33:08;2.60;;;1.23;;
12320;SDS011;6225;52.720;8.276;2022-07-29T03:35:53;2.90;;;1.23;;
12320;SDS011;6225;52.720;8.276;2022-07-29T03:38:37;1.53;;;1.13;;
12320;SDS011;6225;52.720;8.276;2022-07-29T03:41:23;2.20;;;1.30;;
12320;SDS011;6225;52.720;8.276;2022-07-29T03:44:08;2.60;;;1.10;;
12320;SDS011;6225;52.720;8.276;2022-07-29T03:46:53;6.27;;;1.20;;
12320;SDS011;6225;52.720;8.276;2022-07-29T03:49:41;3.40;;;1.20;;
12320;SDS011;6225;52.720;8.276;2022-07-29T03:52:27;2.83;;;1.20;;
12320;SDS011;6225;52.720;8.276;2022-07-29T03:55:12;3.67;;;1.10;;
12320;SDS011;6225;52.720;8.276;2022-07-29T03:57:57;3.60;;;1.17;;
12320;SDS011;6225;52.720;8.276;2022-07-29T04:00:43;3.97;;;1.37;;
12320;SDS011;6225;52.720;8.276;2022-07-29T04:03:29;4.43;;;1.70;;
12320;SDS011;6225;52.720;8.276;2022-07-29T04:06:13;2.50;;;1.17;;
12320;SDS011;6225;52.720;8.276;2022-07-29T04:08:58;3.80;;;1.17;;
12320;SDS011;6225;52.720;8.276;2022-07-29T04:11:42;4.30;;;1.33;;
12320;SDS011;6225;52.720;8.276;2022-07-29T04:14:26;5.10;;;1.58;;
12320;SDS011;6225;52.720;8.276;2022-07-29T04:17:10;4.80;;;1.20;;
12320;SDS011;6225;52.720;8.276;2022-07-29T04:19:54;2.03;;;1.30;;
12320;SDS011;6225;52.720;8.276;2022-07-29T04:22:39;8.10;;;1.90;;
12320;SDS011;6225;52.720;8.276;2022-07-29T04:25:23;3.60;;;1.30;;
12320;SDS011;6225;52.720;8.276;2022-07-29T04:28:07;2.73;;;1.27;;
12320;SDS011;6225;52.720;8.276;2022-07-29T04:30:53;5.07;;;1.47;;
12320;SDS011;6225;52.720;8.276;2022-07-29T04:33:37;5.93;;;1.20;;
12320;SDS011;6225;52.720;8.276;2022-07-29T04:36:21;4.90;;;1.53;;
12320;SDS011;6225;52.720;8.276;2022-07-29T04:39:05;6.70;;;1.40;;
12320;SDS011;6225;52.720;8.276;2022-07-29T04:41:49;1.87;;;1.40;;
12320;SDS011;6225;52.720;8.276;2022-07-29T04:44:33;3.00;;;1.00;;
12320;SDS011;6225;52.720;8.276;2022-07-29T04:47:17;1.43;;;1.17;;
12320;SDS011;6225;52.720;8.276;2022-07-29T04:50:01;4.85;;;1.40;;
12320;SDS011;6225;52.720;8.276;2022-07-29T04:52:46;6.97;;;1.23;;
12320;SDS011;6225;52.720;8.276;2022-07-29T04:55:30;3.63;;;1.17;;
12320;SDS011;6225;52.720;8.276;2022-07-29T04:58:14;2.70;;;0.93;;
12320;SDS011;6225;52.720;8.276;2022-07-29T05:00:59;2.17;;;1.30;;
12320;SDS011;6225;52.720;8.276;2022-07-29T05:03:43;3.97;;;1.30;;
12320;SDS011;6225;52.720;8.276;2022-07-29T05:06:28;2.13;;;1.10;;
12320;SDS011;6225;52.720;8.276;2022-07-29T05:09:12;1.63;;;1.30;;
12320;SDS011;6225;52.720;8.276;2022-07-29T05:11:56;1.43;;;1.07;;
12320;SDS011;6225;52.720;8.276;2022-07-29T05:14:41;5.03;;;1.30;;
12320;SDS011;6225;52.720;8.276;2022-07-29T05:17:25;4.23;;;1.50;;
12320;SDS011;6225;52.720;8.276;2022-07-29T05:20:10;7.10;;;1.47;;
12320;SDS011;6225;52.720;8.276;2022-07-29T05:22:54;3.20;;;1.50;;
12320;SDS011;6225;52.720;8.276;2022-07-29T05:25:39;2.93;;;1.33;;
12320;SDS011;6225;52.720;8.276;2022-07-29T05:28:24;3.60;;;1.23;;
12320;SDS011;6225;52.720;8.276;2022-07-29T05:31:08;4.93;;;1.10;;
12320;SDS011;6225;52.720;8.276;2022-07-29T05:33:52;1.53;;;1.23;;
12320;SDS011;6225;52.720;8.276;2022-07-29T05:36:36;7.47;;;1.40;;
12320;SDS011;6225;52.720;8.276;2022-07-29T05:39:20;5.40;;;1.37;;
12320;SDS011;6225;52.720;8.276;2022-07-29T05:42:07;3.73;;;1.23;;
12320;SDS011;6225;52.720;8.276;2022-07-29T05:44:55;6.00;;;1.20;;
12320;SDS011;6225;52.720;8.276;2022-07-29T05:47:39;4.93;;;1.70;;
12320;SDS011;6225;52.720;8.276;2022-07-29T05:50:23;4.20;;;1.93;;
12320;SDS011;6225;52.720;8.276;2022-07-29T05:53:07;4.27;;;1.40;;
12320;SDS011;6225;52.720;8.276;2022-07-29T05:55:51;2.40;;;1.43;;
12320;SDS011;6225;52.720;8.276;2022-07-29T05:58:35;5.13;;;1.40;;
12320;SDS011;6225;52.720;8.276;2022-07-29T06:01:20;4.83;;;1.40;;
12320;SDS011;6225;52.720;8.276;2022-07-29T06:04:04;4.53;;;1.60;;
12320;SDS011;6225;52.720;8.276;2022-07-29T06:06:50;2.37;;;1.20;;
12320;SDS011;6225;52.720;8.276;2022-07-29T06:09:34;3.87;;;1.50;;
12320;SDS011;6225;52.720;8.276;2022-07-29T06:12:18;3.07;;;1.60;;
12320;SDS011;6225;52.720;8.276;2022-07-29T06:15:03;2.13;;;1.20;;
12320;SDS011;6225;52.720;8.276;2022-07-29T06:17:47;3.00;;;1.70;;
12320;SDS011;6225;52.720;8.276;2022-07-29T06:20:32;3.17;;;1.50;;
12320;SDS011;6225;52.720;8.276;2022-07-29T06:23:17;3.00;;;1.37;;
12320;SDS011;6225;52.720;8.276;2022-07-29T06:26:01;2.00;;;1.30;;
12320;SDS011;6225;52.720;8.276;2022-07-29T06:28:46;3.40;;;1.73;;
12320;SDS011;6225;52.720;8.276;2022-07-29T06:31:31;3.73;;;1.70;;
12320;SDS011;6225;52.720;8.276;2022-07-29T06:34:15;2.73;;;1.47;;
12320;SDS011;6225;52.720;8.276;2022-07-29T06:36:59;4.13;;;1.67;;
12320;SDS011;6225;52.720;8.276;2022-07-29T06:39:44;2.20;;;1.27;;
12320;SDS011;6225;52.720;8.276;2022-07-29T06:42:28;6.17;;;1.50;;
12320;SDS011;6225;52.720;8.276;2022-07-29T06:45:12;3.03;;;1.30;;
12320;SDS011;6225;52.720;8.276;2022-07-29T06:47:56;4.93;;;1.20;;
12320;SDS011;6225;52.720;8.276;2022-07-29T06:50:40;3.57;;;1.70;;
12320;SDS011;6225;52.720;8.276;2022-07-29T06:53:25;5.10;;;1.50;;
12320;SDS011;6225;52.720;8.276;2022-07-29T06:56:10;2.97;;;1.20;;
12320;SDS011;6225;52.720;8.276;2022-07-29T06:58:56;3.33;;;1.30;;
12320;SDS011;6225;52.720;8.276;2022-07-29T07:01:41;4.73;;;1.40;;
12320;SDS011;6225;52.720;8.276;2022-07-29T07:04:26;2.77;;;1.50;;
12320;SDS011;6225;52.720;8.276;2022-07-29T07:07:10;3.77;;;1.50;;
12320;SDS011;6225;52.720;8.276;2022-07-29T07:09:54;3.13;;;1.20;;
12320;SDS011;6225;52.720;8.276;2022-07-29T07:12:38;3.13;;;1.20;;
12320;SDS011;6225;52.720;8.276;2022-07-29T07:15:22;5.50;;;1.40;;
12320;SDS011;6225;52.720;8.276;2022-07-29T07:18:06;3.17;;;1.53;;
12320;SDS011;6225;52.720;8.276;2022-07-29T07:20:50;9.07;;;2.00;;
12320;SDS011;6225;52.720;8.276;2022-07-29T07:23:35;3.23;;;1.20;;
12320;SDS011;6225;52.720;8.276;2022-07-29T07:26:19;2.40;;;1.43;;
12320;SDS011;6225;52.720;8.276;2022-07-29T07:29:03;3.30;;;1.80;;
12320;SDS011;6225;52.720;8.276;2022-07-29T07:31:47;5.20;;;1.40;;
12320;SDS011;6225;52.720;8.276;2022-07-29T07:34:31;2.43;;;1.30;;
12320;SDS011;6225;52.720;8.276;2022-07-29T07:37:15;3.57;;;1.27;;
12320;SDS011;6225;52.720;8.276;2022-07-29T07:40:00;4.13;;;1.80;;
12320;SDS011;6225;52.720;8.276;2022-07-29T07:42:44;6.18;;;2.10;;
12320;SDS011;6225;52.720;8.276;2022-07-29T07:45:28;6.10;;;1.70;;
12320;SDS011;6225;52.720;8.276;2022-07-29T07:48:12;4.85;;;1.60;;
12320;SDS011;6225;52.720;8.276;2022-07-29T07:50:56;5.55;;;1.65;;
12320;SDS011;6225;52.720;8.276;2022-07-29T07:53:40;3.10;;;1.58;;
12320;SDS011;6225;52.720;8.276;2022-07-29T07:56:24;4.72;;;1.77;;
12320;SDS011;6225;52.720;8.276;2022-07-29T07:59:08;4.90;;;1.60;;
12320;SDS011;6225;52.720;8.276;2022-07-29T08:01:52;1.77;;;1.50;;
12320;SDS011;6225;52.720;8.276;2022-07-29T08:04:36;2.53;;;1.50;;
12320;SDS011;6225;52.720;8.276;2022-07-29T08:07:24;5.00;;;1.15;;
12320;SDS011;6225;52.720;8.276;2022-07-29T08:10:08;2.90;;;1.27;;
12320;SDS011;6225;52.720;8.276;2022-07-29T08:12:52;5.10;;;1.70;;
12320;SDS011;6225;52.720;8.276;2022-07-29T08:15:36;4.88;;;1.30;;
12320;SDS011;6225;52.720;8.276;2022-07-29T08:18:22;2.97;;;1.35;;
12320;SDS011;6225;52.720;8.276;2022-07-29T08:21:07;6.03;;;1.25;;
12320;SDS011;6225;52.720;8.276;2022-07-29T08:23:51;2.60;;;1.30;;
12320;SDS011;6225;52.720;8.276;2022-07-29T08:26:36;6.35;;;1.33;;
12320;SDS011;6225;52.720;8.276;2022-07-29T08:29:20;3.63;;;1.35;;
12320;SDS011;6225;52.720;8.276;2022-07-29T08:32:04;3.20;;;1.55;;
12320;SDS011;6225;52.720;8.276;2022-07-29T08:34:49;5.40;;;1.42;;
12320;SDS011;6225;52.720;8.276;2022-07-29T08:37:33;4.68;;;1.48;;
12320;SDS011;6225;52.720;8.276;2022-07-29T08:40:18;3.33;;;1.50;;
12320;SDS011;6225;52.720;8.276;2022-07-29T08:43:07;4.35;;;1.48;;
12320;SDS011;6225;52.720;8.276;2022-07-29T08:45:52;2.75;;;1.08;;
12320;SDS011;6225;52.720;8.276;2022-07-29T08:48:36;2.65;;;1.38;;
12320;SDS011;6225;52.720;8.276;2022-07-29T08:51:22;3.25;;;1.30;;
12320;SDS011;6225;52.720;8.276;2022-07-29T08:54:09;4.50;;;1.40;;
12320;SDS011;6225;52.720;8.276;2022-07-29T08:56:54;6.25;;;1.30;;
12320;SDS011;6225;52.720;8.276;2022-07-29T08:59:39;3.88;;;1.50;;
12320;SDS011;6225;52.720;8.276;2022-07-29T09:02:25;2.33;;;1.10;;
12320;SDS011;6225;52.720;8.276;2022-07-29T09:05:13;6.38;;;1.58;;
12320;SDS011;6225;52.720;8.276;2022-07-29T09:07:57;2.38;;;1.20;;
12320;SDS011;6225;52.720;8.276;2022-07-29T09:10:41;4.55;;;1.17;;
12320;SDS011;6225;52.720;8.276;2022-07-29T09:13:25;4.32;;;1.30;;
12320;SDS011;6225;52.720;8.276;2022-07-29T09:16:09;7.35;;;1.58;;
12320;SDS011;6225;52.720;8.276;2022-07-29T09:18:53;3.70;;;1.40;;
12320;SDS011;6225;52.720;8.276;2022-07-29T09:21:40;7.13;;;1.38;;
12320;SDS011;6225;52.720;8.276;2022-07-29T09:24:43;2.60;;;1.35;;
12320;SDS011;6225;52.720;8.276;2022-07-29T09:27:30;3.53;;;1.58;;
12320;SDS011;6225;52.720;8.276;2022-07-29T09:30:14;4.40;;;1.13;;
12320;SDS011;6225;52.720;8.276;2022-07-29T09:32:59;2.30;;;1.30;;
12320;SDS011;6225;52.720;8.276;2022-07-29T09:35:45;6.57;;;1.40;;
12320;SDS011;6225;52.720;8.276;2022-07-29T09:38:29;5.32;;;1.52;;
12320;SDS011;6225;52.720;8.276;2022-07-29T09:41:13;5.30;;;1.55;;
12320;SDS011;6225;52.720;8.276;2022-07-29T09:43:58;9.25;;;1.88;;
12320;SDS011;6225;52.720;8.276;2022-07-29T09:47:04;1.75;;;1.33;;
12320;SDS011;6225;52.720;8.276;2022-07-29T09:49:55;4.88;;;1.52;;
12320;SDS011;6225;52.720;8.276;2022-07-29T09:52:44;3.78;;;1.20;;
12320;SDS011;6225;52.720;8.276;2022-07-29T09:55:32;2.65;;;1.30;;
12320;SDS011;6225;52.720;8.276;2022-07-29T09:58:33;6.20;;;1.20;;
12320;SDS011;6225;52.720;8.276;2022-07-29T10:01:26;6.47;;;1.85;;
12320;SDS011;6225;52.720;8.276;2022-07-29T10:04:11;8.48;;;1.40;;
12320;SDS011;6225;52.720;8.276;2022-07-29T10:06:56;5.93;;;1.30;;
12320;SDS011;6225;52.720;8.276;2022-07-29T10:09:49;2.72;;;1.13;;
12320;SDS011;6225;52.720;8.276;2022-07-29T10:12:47;3.85;;;1.20;;
12320;SDS011;6225;52.720;8.276;2022-07-29T10:15:34;3.45;;;1.30;;
12320;SDS011;6225;52.720;8.276;2022-07-29T10:18:21;2.75;;;1.10;;
12320;SDS011;6225;52.720;8.276;2022-07-29T10:21:06;4.10;;;1.35;;
12320;SDS011;6225;52.720;8.276;2022-07-29T10:23:52;3.30;;;1.42;;
12320;SDS011;6225;52.720;8.276;2022-07-29T10:26:36;3.05;;;1.17;;
12320;SDS011;6225;52.720;8.276;2022-07-29T10:29:24;3.58;;;1.20;;
12320;SDS011;6225;52.720;8.276;2022-07-29T10:38:10;5.20;;;1.30;;
12320;SDS011;6225;52.720;8.276;2022-07-29T10:47:01;2.70;;;1.05;;
12320;SDS011;6225;52.720;8.276;2022-07-29T10:49:54;6.22;;;1.40;;
12320;SDS011;6225;52.720;8.276;2022-07-29T10:55:37;3.13;;;1.45;;
12320;SDS011;6225;52.720;8.276;2022-07-29T10:58:31;5.85;;;1.30;;
12320;SDS011;6225;52.720;8.276;2022-07-29T11:01:28;4.38;;;1.33;;
12320;SDS011;6225;52.720;8.276;2022-07-29T11:04:13;4.82;;;1.40;;
12320;SDS011;6225;52.720;8.276;2022-07-29T11:09:42;5.53;;;1.88;;
12320;SDS011;6225;52.720;8.276;2022-07-29T11:15:22;3.15;;;1.27;;
12320;SDS011;6225;52.720;8.276;2022-07-29T11:18:07;7.93;;;1.42;;
12320;SDS011;6225;52.720;8.276;2022-07-29T11:20:52;6.35;;;1.33;;
12320;SDS011;6225;52.720;8.276;2022-07-29T11:23:39;5.43;;;1.55;;
12320;SDS011;6225;52.720;8.276;2022-07-29T11:26:25;4.82;;;1.33;;
12320;SDS011;6225;52.720;8.276;2022-07-29T11:29:19;5.00;;;1.40;;
12320;SDS011;6225;52.720;8.276;2022-07-29T11:32:09;5.07;;;1.17;;
12320;SDS011;6225;52.720;8.276;2022-07-29T11:44:10;2.92;;;1.48;;
12320;SDS011;6225;52.720;8.276;2022-07-29T11:46:54;2.55;;;1.40;;
12320;SDS011;6225;52.720;8.276;2022-07-29T11:49:38;3.35;;;1.40;;
12320;SDS011;6225;52.720;8.276;2022-07-29T11:52:32;2.88;;;1.30;;
12320;SDS011;6225;52.720;8.276;2022-07-29T11:55:21;2.55;;;1.10;;
12320;SDS011;6225;52.720;8.276;2022-07-29T11:58:08;3.10;;;1.20;;
12320;SDS011;6225;52.720;8.276;2022-07-29T12:00:52;4.95;;;1.30;;
12320;SDS011;6225;52.720;8.276;2022-07-29T12:03:36;2.45;;;1.00;;
12320;SDS011;6225;52.720;8.276;2022-07-29T12:06:20;4.32;;;1.27;;
12320;SDS011;6225;52.720;8.276;2022-07-29T12:09:08;3.05;;;1.27;;
12320;SDS011;6225;52.720;8.276;2022-07-29T12:11:56;4.35;;;1.48;;
12320;SDS011;6225;52.720;8.276;2022-07-29T12:14:42;2.58;;;1.30;;
12320;SDS011;6225;52.720;8.276;2022-07-29T12:17:30;4.07;;;1.40;;
12320;SDS011;6225;52.720;8.276;2022-07-29T12:20:27;3.13;;;1.40;;
12320;SDS011;6225;52.720;8.276;2022-07-29T12:23:13;4.50;;;1.75;;
12320;SDS011;6225;52.720;8.276;2022-07-29T12:25:58;5.75;;;1.35;;
12320;SDS011;6225;52.720;8.276;2022-07-29T12:28:43;5.43;;;1.50;;
12320;SDS011;6225;52.720;8.276;2022-07-29T12:31:27;5.28;;;1.23;;
12320;SDS011;6225;52.720;8.276;2022-07-29T12:34:11;2.20;;;1.17;;
12320;SDS011;6225;52.720;8.276;2022-07-29T12:36:57;3.30;;;1.20;;
12320;SDS011;6225;52.720;8.276;2022-07-29T12:39:41;4.07;;;1.30;;
12320;SDS011;6225;52.720;8.276;2022-07-29T12:42:26;4.85;;;1.75;;
12320;SDS011;6225;52.720;8.276;2022-07-29T12:45:10;3.35;;;1.42;;
12320;SDS011;6225;52.720;8.276;2022-07-29T12:47:54;3.63;;;1.20;;
12320;SDS011;6225;52.720;8.276;2022-07-29T12:50:51;2.50;;;1.42;;
12320;SDS011;6225;52.720;8.276;2022-07-29T12:53:40;5.13;;;1.85;;
12320;SDS011;6225;52.720;8.276;2022-07-29T12:56:24;5.50;;;1.52;;
12320;SDS011;6225;52.720;8.276;2022-07-29T12:59:21;6.30;;;1.33;;
12320;SDS011;6225;52.720;8.276;2022-07-29T13:02:06;5.43;;;1.30;;
12320;SDS011;6225;52.720;8.276;2022-07-29T13:04:57;1.25;;;1.15;;
12320;SDS011;6225;52.720;8.276;2022-07-29T13:07:42;4.72;;;1.38;;
12320;SDS011;6225;52.720;8.276;2022-07-29T13:10:26;5.18;;;1.50;;
12320;SDS011;6225;52.720;8.276;2022-07-29T13:13:13;4.47;;;1.55;;
12320;SDS011;6225;52.720;8.276;2022-07-29T13:16:05;6.07;;;1.50;;
12320;SDS011;6225;52.720;8.276;2022-07-29T13:19:10;6.90;;;1.70;;
12320;SDS011;6225;52.720;8.276;2022-07-29T13:21:55;6.95;;;1.30;;
12320;SDS011;6225;52.720;8.276;2022-07-29T13:24:49;7.72;;;1.33;;
12320;SDS011;6225;52.720;8.276;2022-07-29T13:27:41;6.63;;;1.92;;
12320;SDS011;6225;52.720;8.276;2022-07-29T13:30:25;4.78;;;1.55;;
12320;SDS011;6225;52.720;8.276;2022-07-29T13:33:09;2.45;;;0.98;;
12320;SDS011;6225;52.720;8.276;2022-07-29T13:35:53;4.88;;;1.75;;
12320;SDS011;6225;52.720;8.276;2022-07-29T13:38:37;5.70;;;1.55;;
12320;SDS011;6225;52.720;8.276;2022-07-29T13:41:22;3.78;;;1.80;;
12320;SDS011;6225;52.720;8.276;2022-07-29T13:44:06;5.65;;;1.70;;
12320;SDS011;6225;52.720;8.276;2022-07-29T13:46:50;3.03;;;1.80;;
12320;SDS011;6225;52.720;8.276;2022-07-29T13:49:34;3.28;;;1.30;;
12320;SDS011;6225;52.720;8.276;2022-07-29T13:52:19;2.20;;;1.15;;
12320;SDS011;6225;52.720;8.276;2022-07-29T13:55:03;4.40;;;1.30;;
12320;SDS011;6225;52.720;8.276;2022-07-29T13:57:48;2.22;;;1.10;;
12320;SDS011;6225;52.720;8.276;2022-07-29T14:00:32;4.13;;;1.33;;
12320;SDS011;6225;52.720;8.276;2022-07-29T14:03:16;2.55;;;1.30;;
12320;SDS011;6225;52.720;8.276;2022-07-29T14:06:00;6.47;;;1.60;;
12320;SDS011;6225;52.720;8.276;2022-07-29T14:08:44;6.00;;;1.40;;
12320;SDS011;6225;52.720;8.276;2022-07-29T14:11:28;7.70;;;1.30;;
12320;SDS011;6225;52.720;8.276;2022-07-29T14:14:12;4.45;;;1.45;;
12320;SDS011;6225;52.720;8.276;2022-07-29T14:16:56;5.50;;;1.33;;
12320;SDS011;6225;52.720;8.276;2022-07-29T14:19:41;3.15;;;1.15;;
12320;SDS011;6225;52.720;8.276;2022-07-29T14:22:25;4.68;;;1.20;;
12320;SDS011;6225;52.720;8.276;2022-07-29T14:25:09;2.17;;;1.17;;
12320;SDS011;6225;52.720;8.276;2022-07-29T14:27:53;6.13;;;1.52;;
12320;SDS011;6225;52.720;8.276;2022-07-29T14:30:37;7.13;;;1.38;;
12320;SDS011;6225;52.720;8.276;2022-07-29T14:33:21;3.10;;;1.35;;
12320;SDS011;6225;52.720;8.276;2022-07-29T14:36:05;4.78;;;1.17;;
12320;SDS011;6225;52.720;8.276;2022-07-29T14:38:50;6.38;;;1.20;;
12320;SDS011;6225;52.720;8.276;2022-07-29T14:41:34;5.70;;;1.50;;
12320;SDS011;6225;52.720;8.276;2022-07-29T14:44:18;4.43;;;1.50;;
12320;SDS011;6225;52.720;8.276;2022-07-29T14:47:02;5.55;;;1.48;;
12320;SDS011;6225;52.720;8.276;2022-07-29T14:49:46;3.30;;;1.38;;
12320;SDS011;6225;52.720;8.276;2022-07-29T14:52:30;5.38;;;1.73;;
12320;SDS011;6225;52.720;8.276;2022-07-29T14:55:15;6.70;;;1.80;;
12320;SDS011;6225;52.720;8.276;2022-07-29T14:57:59;3.92;;;1.60;;
12320;SDS011;6225;52.720;8.276;2022-07-29T15:00:43;5.93;;;2.38;;
12320;SDS011;6225;52.720;8.276;2022-07-29T15:03:27;3.00;;;1.70;;
12320;SDS011;6225;52.720;8.276;2022-07-29T15:06:11;4.40;;;1.73;;
12320;SDS011;6225;52.720;8.276;2022-07-29T15:08:55;9.85;;;1.67;;
12320;SDS011;6225;52.720;8.276;2022-07-29T15:11:39;3.53;;;1.90;;
12320;SDS011;6225;52.720;8.276;2022-07-29T15:14:24;9.27;;;1.88;;
12320;SDS011;6225;52.720;8.276;2022-07-29T15:17:08;7.10;;;1.75;;
12320;SDS011;6225;52.720;8.276;2022-07-29T15:19:52;4.53;;;1.50;;
12320;SDS011;6225;52.720;8.276;2022-07-29T15:22:36;5.38;;;1.92;;
12320;SDS011;6225;52.720;8.276;2022-07-29T15:25:22;9.05;;;1.65;;
12320;SDS011;6225;52.720;8.276;2022-07-29T15:28:07;4.25;;;1.60;;
12320;SDS011;6225;52.720;8.276;2022-07-29T15:30:51;4.72;;;2.08;;
12320;SDS011;6225;52.720;8.276;2022-07-29T15:33:36;3.55;;;2.00;;
12320;SDS011;6225;52.720;8.276;2022-07-29T15:36:20;5.75;;;2.15;;
12320;SDS011;6225;52.720;8.276;2022-07-29T15:39:04;4.68;;;2.03;;
12320;SDS011;6225;52.720;8.276;2022-07-29T15:41:48;13.10;;;2.10;;
12320;SDS011;6225;52.720;8.276;2022-07-29T15:44:33;6.22;;;2.25;;
12320;SDS011;6225;52.720;8.276;2022-07-29T15:47:17;5.45;;;2.08;;
12320;SDS011;6225;52.720;8.276;2022-07-29T15:50:01;9.82;;;2.45;;
12320;SDS011;6225;52.720;8.276;2022-07-29T15:52:46;8.05;;;2.55;;
12320;SDS011;6225;52.720;8.276;2022-07-29T15:55:30;6.05;;;1.90;;
12320;SDS011;6225;52.720;8.276;2022-07-29T15:58:14;6.35;;;2.10;;
12320;SDS011;6225;52.720;8.276;2022-07-29T16:00:58;5.18;;;1.77;;
12320;SDS011;6225;52.720;8.276;2022-07-29T16:03:42;8.05;;;1.83;;
12320;SDS011;6225;52.720;8.276;2022-07-29T16:06:26;6.55;;;2.28;;
12320;SDS011;6225;52.720;8.276;2022-07-29T16:09:10;6.40;;;1.85;;
12320;SDS011;6225;52.720;8.276;2022-07-29T16:11:55;4.05;;;2.10;;
12320;SDS011;6225;52.720;8.276;2022-07-29T16:14:39;6.95;;;1.90;;
12320;SDS011;6225;52.720;8.276;2022-07-29T16:17:23;3.35;;;1.60;;
12320;SDS011;6225;52.720;8.276;2022-07-29T16:20:07;9.82;;;1.70;;
12320;SDS011;6225;52.720;8.276;2022-07-29T16:22:51;6.53;;;2.13;;
12320;SDS011;6225;52.720;8.276;2022-07-29T16:25:35;7.97;;;2.10;;
12320;SDS011;6225;52.720;8.276;2022-07-29T16:28:20;6.15;;;1.80;;
12320;SDS011;6225;52.720;8.276;2022-07-29T16:31:04;7.90;;;2.20;;
12320;SDS011;6225;52.720;8.276;2022-07-29T16:33:48;4.78;;;1.85;;
12320;SDS011;6225;52.720;8.276;2022-07-29T16:36:33;8.02;;;2.00;;
12320;SDS011;6225;52.720;8.276;2022-07-29T16:39:17;3.53;;;2.05;;
12320;SDS011;6225;52.720;8.276;2022-07-29T16:42:01;3.60;;;1.70;;
12320;SDS011;6225;52.720;8.276;2022-07-29T16:44:45;3.88;;;2.20;;
12320;SDS011;6225;52.720;8.276;2022-07-29T16:47:29;4.63;;;2.40;;
12320;SDS011;6225;52.720;8.276;2022-07-29T16:50:13;6.75;;;2.20;;
12320;SDS011;6225;52.720;8.276;2022-07-29T16:52:57;4.22;;;2.03;;
12320;SDS011;6225;52.720;8.276;2022-07-29T16:55:42;4.18;;;2.22;;
12320;SDS011;6225;52.720;8.276;2022-07-29T16:58:26;5.82;;;2.60;;
12320;SDS011;6225;52.720;8.276;2022-07-29T17:01:11;7.47;;;2.15;;
12320;SDS011;6225;52.720;8.276;2022-07-29T17:03:54;8.40;;;2.55;;
12320;SDS011;6225;52.720;8.276;2022-07-29T17:06:51;4.15;;;2.70;;
12320;SDS011;6225;52.720;8.276;2022-07-29T17:09:35;4.32;;;2.42;;
12320;SDS011;6225;52.720;8.276;2022-07-29T17:12:19;7.13;;;2.40;;
12320;SDS011;6225;52.720;8.276;2022-07-29T17:15:04;7.55;;;2.40;;
12320;SDS011;6225;52.720;8.276;2022-07-29T17:17:50;6.55;;;1.90;;
12320;SDS011;6225;52.720;8.276;2022-07-29T17:20:34;4.80;;;1.80;;
12320;SDS011;6225;52.720;8.276;2022-07-29T17:23:19;4.53;;;1.95;;
12320;SDS011;6225;52.720;8.276;2022-07-29T17:26:03;4.03;;;1.73;;
12320;SDS011;6225;52.720;8.276;2022-07-29T17:28:47;6.10;;;1.92;;